createdAt,value
2022-09-02T02:16:27.933Z,51.3
2022-09-02T02:17:27.847Z,51.4
2022-09-02T02:18:27.853Z,50.9
2022-09-02T02:19:27.857Z,50.4
2022-09-02T02:20:27.865Z,50.5
2022-09-02T02:21:27.851Z,50.8
2022-09-02T02:22:27.852Z,50.6
2022-09-02T02:23:27.855Z,50.2
2022-09-02T02:24:27.851Z,50.4
2022-09-02T02:25:27.847Z,50.7
2022-09-02T02:26:27.857Z,50.8
2022-09-02T02:28:27.845Z,51.4
2022-09-02T02:29:27.852Z,50.5
2022-09-02T02:30:27.852Z,51.3
2022-09-02T02:31:27.910Z,51.3
2022-09-02T02:32:27.861Z,51.5
2022-09-02T02:34:27.854Z,51.5
2022-09-02T02:36:27.882Z,51.9
2022-09-02T02:37:27.857Z,52
2022-09-02T02:38:27.868Z,52.2
2022-09-02T02:39:27.848Z,52.2
2022-09-02T02:40:27.901Z,52
2022-09-02T02:41:27.853Z,51.5
2022-09-02T02:42:27.856Z,51.7
2022-09-02T02:43:27.872Z,52
2022-09-02T02:44:27.858Z,52
2022-09-02T02:45:27.862Z,52.1
2022-09-02T02:46:27.953Z,52.3
2022-09-02T02:47:27.859Z,52
2022-09-02T02:50:27.861Z,52.1
2022-09-02T02:51:27.865Z,51.4
2022-09-02T02:52:27.863Z,51.7
2022-09-02T02:55:27.862Z,51.7
2022-09-02T02:56:27.860Z,51.7
2022-09-02T02:57:27.860Z,51.8
2022-09-02T02:58:27.866Z,52
2022-09-02T02:59:27.859Z,51.4
2022-09-02T03:00:27.862Z,51.3
2022-09-02T03:02:28.066Z,51.8
2022-09-02T03:03:27.855Z,52.1
2022-09-02T03:04:27.854Z,51.9
2022-09-02T03:05:27.861Z,51.9
2022-09-02T03:07:27.862Z,51.6
2022-09-02T03:08:27.871Z,51.6
2022-09-02T03:09:27.857Z,51.9
2022-09-02T03:10:27.857Z,52.2
2022-09-02T03:11:27.876Z,51.9
2022-09-02T03:12:27.868Z,52.1
2022-09-02T03:13:29.375Z,52.1
2022-09-02T03:16:27.898Z,52.1
2022-09-02T03:17:27.856Z,52.1
2022-09-02T03:18:27.857Z,52.3
2022-09-02T03:19:27.860Z,52.4
2022-09-02T03:20:27.861Z,52.4
2022-09-02T03:21:27.861Z,52.3
2022-09-02T03:22:27.857Z,52.6
2022-09-02T03:23:27.859Z,51.9
2022-09-02T03:24:27.866Z,51.9
2022-09-02T03:26:27.857Z,52
2022-09-02T03:27:27.878Z,51.7
2022-09-02T03:29:27.864Z,52
2022-09-02T03:30:27.879Z,52.1
2022-09-02T03:31:27.938Z,51.8
2022-09-02T03:32:30.578Z,51.2
2022-09-02T03:34:27.858Z,52
2022-09-02T03:35:27.864Z,52.1
2022-09-02T03:36:27.863Z,52
2022-09-02T03:37:27.869Z,52
2022-09-02T03:38:27.863Z,52.2
2022-09-02T03:39:27.861Z,52.5
2022-09-02T03:40:27.938Z,51.8
2022-09-02T03:41:27.858Z,51.4
2022-09-02T03:42:27.896Z,51.5
2022-09-02T03:44:27.857Z,51.6
2022-09-02T03:45:27.863Z,51.2
2022-09-02T03:47:27.888Z,51.9
2022-09-02T03:48:27.860Z,51.6
2022-09-02T03:49:27.869Z,51.2
2022-09-02T03:50:27.868Z,51.8
2022-09-02T03:51:27.857Z,52
2022-09-02T03:52:27.867Z,51.2
2022-09-02T03:53:27.861Z,51.7
2022-09-02T03:55:27.864Z,52.2
2022-09-02T03:56:27.864Z,52.3
2022-09-02T03:58:27.863Z,51.6
2022-09-02T04:00:27.871Z,51.9
2022-09-02T04:01:30.849Z,52.1
2022-09-02T04:02:27.982Z,52.4
2022-09-02T04:03:27.866Z,52
2022-09-02T04:04:27.858Z,52.1
2022-09-02T04:05:27.884Z,51.8
2022-09-02T04:06:32.549Z,52
2022-09-02T04:08:27.873Z,51.7
2022-09-02T04:09:27.864Z,52.3
2022-09-02T04:10:27.874Z,52.6
2022-09-02T04:11:27.871Z,51.8
2022-09-02T04:12:32.339Z,52.3
2022-09-02T04:13:27.868Z,52.5
2022-09-02T04:14:27.872Z,51.7
2022-09-02T04:16:27.931Z,52.3
2022-09-02T04:17:27.861Z,52.3
2022-09-02T04:18:27.862Z,52.2
2022-09-02T04:19:27.869Z,51.6
2022-09-02T04:20:27.874Z,52.4
2022-09-02T04:21:27.866Z,52.2
2022-09-02T04:23:27.870Z,51.9
2022-09-02T04:24:27.874Z,51.6
2022-09-02T04:25:27.936Z,51.9
2022-09-02T04:26:27.868Z,51.6
2022-09-02T04:27:27.875Z,51.4
2022-09-02T04:29:27.865Z,51.8
2022-09-02T04:30:27.884Z,51.7
2022-09-02T04:31:27.910Z,51.8
2022-09-02T04:32:27.866Z,52.3
2022-09-02T04:33:27.877Z,52.8
2022-09-02T04:34:27.886Z,52.9
2022-09-02T04:35:27.885Z,52.1
2022-09-02T04:37:27.874Z,52.5
2022-09-02T04:38:27.870Z,52.8
2022-09-02T04:39:27.874Z,52.8
2022-09-02T04:40:27.953Z,52.4
2022-09-02T04:42:27.879Z,52.1
2022-09-02T04:43:27.871Z,52.2
2022-09-02T04:44:27.873Z,51.4
2022-09-02T04:45:30.001Z,51.2
2022-09-02T04:46:31.357Z,51.7
2022-09-02T04:47:27.871Z,51.9
2022-09-02T04:48:27.874Z,52.1
2022-09-02T04:50:27.897Z,51.8
2022-09-02T04:51:27.870Z,51.8
2022-09-02T04:52:27.869Z,51.7
2022-09-02T04:53:27.870Z,51.1
2022-09-02T04:55:27.871Z,52
2022-09-02T04:56:27.877Z,52.1
2022-09-02T04:57:27.876Z,51.9
2022-09-02T04:58:27.870Z,52.2
2022-09-02T04:59:27.877Z,52.3
2022-09-02T05:00:27.874Z,51.5
2022-09-02T05:01:27.952Z,51.5
2022-09-02T05:02:28.003Z,51.6
2022-09-02T05:03:27.866Z,51.4
2022-09-02T05:05:27.880Z,51.7
2022-09-02T05:06:27.872Z,52
2022-09-02T05:07:27.883Z,52.4
2022-09-02T05:08:27.884Z,52.4
2022-09-02T05:09:27.931Z,52.3
2022-09-02T05:11:27.906Z,52
2022-09-02T05:12:27.878Z,52
2022-09-02T05:13:27.875Z,51.1
2022-09-02T05:14:27.874Z,51.1
2022-09-02T05:15:27.935Z,51.7
2022-09-02T05:16:27.877Z,52
2022-09-02T05:17:27.879Z,53.1
2022-09-02T05:19:27.878Z,52.1
2022-09-02T05:20:27.880Z,52.4
2022-09-02T05:22:27.885Z,52.2
2022-09-02T05:23:27.884Z,51.9
2022-09-02T05:24:27.879Z,52.1
2022-09-02T05:25:27.882Z,51.9
2022-09-02T05:27:27.890Z,51.8
2022-09-02T05:29:27.891Z,52
2022-09-02T05:30:27.890Z,52.2
2022-09-02T05:32:27.940Z,53
2022-09-02T05:34:27.934Z,52.6
2022-09-02T05:35:27.952Z,51.1
2022-09-02T05:36:27.942Z,51.2
2022-09-02T05:37:27.943Z,51.4
2022-09-02T05:38:27.882Z,51.6
2022-09-02T05:40:28.895Z,52.7
2022-09-02T05:41:27.885Z,52.4
2022-09-02T05:42:27.943Z,52.2
2022-09-02T05:43:27.937Z,51.6
2022-09-02T05:44:27.953Z,51.8
2022-09-02T05:45:27.915Z,51
2022-09-02T05:46:27.997Z,51.1
2022-09-02T05:47:27.937Z,51.8
2022-09-02T05:48:27.942Z,50.9
2022-09-02T05:49:27.939Z,51.6
2022-09-02T05:50:27.900Z,51.8
2022-09-02T05:51:27.938Z,51.6
2022-09-02T05:53:27.937Z,51.9
2022-09-02T05:54:27.898Z,50.5
2022-09-02T05:55:27.939Z,50.7
2022-09-02T05:56:27.913Z,49.9
2022-09-02T05:58:27.941Z,51
2022-09-02T05:59:27.892Z,51.1
2022-09-02T06:01:27.976Z,51.1
2022-09-02T06:04:27.886Z,49.9
2022-09-02T06:05:27.888Z,50.2
2022-09-02T06:06:27.884Z,51.1
2022-09-02T06:07:27.894Z,51.3
2022-09-02T06:08:27.891Z,51.6
2022-09-02T06:09:27.910Z,51.6
2022-09-02T06:10:27.982Z,50.8
2022-09-02T06:12:27.897Z,51.6
2022-09-02T06:13:27.897Z,51.2
2022-09-02T06:14:27.902Z,51.4
2022-09-02T06:15:27.909Z,50.8
2022-09-02T06:16:27.968Z,51.3
2022-09-02T06:17:27.888Z,50.5
2022-09-02T06:18:27.902Z,50.8
2022-09-02T06:19:27.897Z,51.3
2022-09-02T06:20:27.900Z,51.2
2022-09-02T06:21:27.889Z,50.8
2022-09-02T06:22:27.891Z,51
2022-09-02T06:23:27.892Z,51.1
2022-09-02T06:25:27.894Z,50.8
2022-09-02T06:26:27.887Z,51.2
2022-09-02T06:27:27.896Z,51.3
2022-09-02T06:28:27.894Z,51.3
2022-09-02T06:29:27.892Z,50.7
2022-09-02T06:30:27.897Z,50.5
2022-09-02T06:31:27.948Z,50.6
2022-09-02T06:33:27.902Z,50.9
2022-09-02T06:34:27.896Z,50.8
2022-09-02T06:35:27.890Z,50
2022-09-02T06:36:28.362Z,50
2022-09-02T06:37:27.890Z,50.5
2022-09-02T06:38:27.893Z,49.8
2022-09-02T06:39:27.929Z,50
2022-09-02T06:40:27.945Z,49.8
2022-09-02T06:43:27.894Z,47.4
2022-09-02T06:44:27.922Z,46.1
2022-09-02T06:46:27.957Z,45.6
2022-09-02T06:47:27.897Z,45.7
2022-09-02T06:48:27.907Z,45.9
2022-09-02T06:50:27.892Z,45.7
2022-09-02T06:51:27.904Z,46.5
2022-09-02T06:52:27.902Z,46.1
2022-09-02T06:55:27.893Z,47.8
2022-09-02T06:56:27.902Z,48
2022-09-02T06:57:31.353Z,47.6
2022-09-02T06:58:27.901Z,48
2022-09-02T06:59:27.900Z,48.3
2022-09-02T07:00:27.906Z,49.1
2022-09-02T07:01:27.988Z,48.7
2022-09-02T07:02:27.904Z,48.8
2022-09-02T07:03:27.906Z,49.2
2022-09-02T07:04:27.900Z,48.9
2022-09-02T07:05:27.902Z,48
2022-09-02T07:07:27.901Z,48.7
2022-09-02T07:08:27.909Z,48.8
2022-09-02T07:09:27.900Z,48.9
2022-09-02T07:10:27.904Z,48.1
2022-09-02T07:11:27.903Z,49.2
2022-09-02T07:12:27.907Z,49.1
2022-09-02T07:13:27.903Z,49.4
2022-09-02T07:15:27.899Z,49.6
2022-09-02T07:16:27.949Z,49
2022-09-02T07:17:27.902Z,48.9
2022-09-02T07:18:27.902Z,49.6
2022-09-02T07:19:27.908Z,49.9
2022-09-02T07:20:27.901Z,49.4
2022-09-02T07:21:27.907Z,49.4
2022-09-02T07:22:27.906Z,49.4
2022-09-02T07:24:27.897Z,50.3
2022-09-02T07:25:27.898Z,50.1
2022-09-02T07:26:27.907Z,49.4
2022-09-02T07:29:27.908Z,49.8
2022-09-02T07:30:27.972Z,49.9
2022-09-02T07:31:27.897Z,50.4
2022-09-02T07:34:27.906Z,50.2
2022-09-02T07:36:27.913Z,50.5
2022-09-02T07:37:27.907Z,50.2
2022-09-02T07:38:27.898Z,50.2
2022-09-02T07:39:27.911Z,49.7
2022-09-02T07:40:27.954Z,50
2022-09-02T07:41:27.912Z,50.1
2022-09-02T07:43:27.907Z,49.3
2022-09-02T07:44:27.902Z,49.3
2022-09-02T07:45:27.905Z,49.5
2022-09-02T07:47:27.913Z,48.6
2022-09-02T07:49:28.139Z,48.9
2022-09-02T07:50:27.907Z,48.4
2022-09-02T07:51:30.875Z,48.9
2022-09-02T07:52:27.907Z,49
2022-09-02T07:53:27.919Z,48.5
2022-09-02T07:54:27.911Z,49
2022-09-02T07:55:27.909Z,48.6
2022-09-02T07:57:27.912Z,48.7
2022-09-02T07:58:27.989Z,48.8
2022-09-02T07:59:27.907Z,48.4
2022-09-02T08:00:28.054Z,48.5
2022-09-02T08:01:27.951Z,48.5
2022-09-02T08:03:27.992Z,48.4
2022-09-02T08:04:27.920Z,47.9
2022-09-02T08:05:27.905Z,48.6
2022-09-02T08:06:27.917Z,48.5
2022-09-02T08:07:27.919Z,48.1
2022-09-02T08:08:27.910Z,47.1
2022-09-02T08:10:27.913Z,47.2
2022-09-02T08:11:27.910Z,46.8
2022-09-02T08:12:27.911Z,46.4
2022-09-02T08:13:28.156Z,46.8
2022-09-02T08:14:27.913Z,46.6
2022-09-02T08:16:27.971Z,45.1
2022-09-02T08:18:27.916Z,45.1
2022-09-02T08:19:27.919Z,44.4
2022-09-02T08:20:27.925Z,44.1
2022-09-02T08:21:27.949Z,43.6
2022-09-02T08:22:27.985Z,41.9
2022-09-02T08:23:37.323Z,42.3
2022-09-02T08:24:27.930Z,42.8
2022-09-02T08:25:27.911Z,42.9
2022-09-02T08:26:27.930Z,42.1
2022-09-02T08:29:27.923Z,43.2
2022-09-02T08:31:27.970Z,43.1
2022-09-02T08:32:27.920Z,43.4
2022-09-02T08:33:27.914Z,43
2022-09-02T08:34:27.916Z,43.5
2022-09-02T08:36:27.925Z,42.9
2022-09-02T08:37:27.920Z,43.2
2022-09-02T08:39:27.925Z,43.5
2022-09-02T08:40:28.012Z,44.1
2022-09-02T08:42:27.935Z,43.3
2022-09-02T08:43:27.918Z,43.1
2022-09-02T08:44:27.917Z,42.5
2022-09-02T08:45:27.953Z,42.6
2022-09-02T08:46:27.918Z,42.5
2022-09-02T08:47:27.929Z,42.4
2022-09-02T08:48:27.918Z,43.2
2022-09-02T08:50:27.920Z,42.7
2022-09-02T08:52:27.923Z,41.9
2022-09-02T08:53:27.922Z,42
2022-09-02T08:55:27.933Z,41.4
2022-09-02T08:56:27.924Z,41.2
2022-09-02T08:57:27.941Z,41.4
2022-09-02T08:58:27.930Z,41.6
2022-09-02T09:00:27.919Z,41.6
2022-09-02T09:01:28.037Z,41.7
2022-09-02T09:02:28.084Z,42.5
2022-09-02T09:03:27.925Z,41.9
2022-09-02T09:04:27.922Z,41.7
2022-09-02T09:05:27.929Z,41.7
2022-09-02T09:06:27.932Z,42.2
2022-09-02T09:08:27.935Z,41.7
2022-09-02T09:09:27.923Z,41.8
2022-09-02T09:10:27.937Z,41.1
2022-09-02T09:11:27.935Z,41.5
2022-09-02T09:13:27.939Z,42.2
2022-09-02T09:14:27.938Z,42.1
2022-09-02T09:15:27.934Z,41.5
2022-09-02T09:16:27.956Z,41.4
2022-09-02T09:17:27.935Z,42
2022-09-02T09:18:27.945Z,41.7
2022-09-02T09:19:27.926Z,41.3
2022-09-02T09:21:27.938Z,40
2022-09-02T09:22:27.935Z,39.5
2022-09-02T09:24:27.934Z,39.5
2022-09-02T09:25:27.930Z,40.1
2022-09-02T09:26:27.944Z,38.9
2022-09-02T09:27:27.935Z,38.8
2022-09-02T09:29:27.934Z,39.1
2022-09-02T09:30:27.932Z,39.2
2022-09-02T09:31:27.987Z,39.5
2022-09-02T09:32:27.928Z,39.5
2022-09-02T09:34:27.932Z,38.8
2022-09-02T09:36:27.940Z,39.8
2022-09-02T09:37:30.706Z,39.2
2022-09-02T09:38:27.940Z,39.8
2022-09-02T09:39:27.934Z,39.8
2022-09-02T09:40:28.067Z,40.7
2022-09-02T09:42:27.939Z,39.6
2022-09-02T09:43:27.993Z,39.6
2022-09-02T09:44:27.949Z,39.2
2022-09-02T09:45:28.000Z,39.1
